Time;durP1;ratioP1;P1;durP2;ratioP2;P2;SDS_P1;SDS_P2;PMS_P1;PMS_P2;Temp;Humidity;BMP_temperature;BMP_pressure;BME280_temperature;BME280_humidity;BME280_pressure;Samples;Min_cycle;Max_cycle;Signal;HPM_P1;HPM_P2
2023/12/29 00:01:17;;;;;;;81.60;58.33;;;20.30;56.00;;;;;;5126591;27;20167;-65
2023/12/29 00:03:43;;;;;;;45.75;29.95;;;20.20;56.30;;;;;;5127096;27;21484;-65
2023/12/29 00:06:10;;;;;;;31.63;23.65;;;20.20;56.60;;;;;;5127222;27;20521;-65
2023/12/29 00:08:40;;;;;;;16.60;9.88;;;20.10;56.80;;;;;;5109132;27;20139;-65
2023/12/29 00:11:06;;;;;;;13.20;8.43;;;20.00;56.90;;;;;;5127175;27;20110;-65
2023/12/29 00:13:33;;;;;;;22.27;12.15;;;20.00;57.10;;;;;;5124630;27;20068;-65
2023/12/29 00:15:59;;;;;;;24.60;13.13;;;19.90;57.00;;;;;;5125354;27;20098;-65
2023/12/29 00:18:26;;;;;;;21.52;10.35;;;19.70;56.60;;;;;;5132070;27;20514;-64
2023/12/29 00:20:52;;;;;;;19.70;7.35;;;19.70;56.50;;;;;;5107296;27;20120;-65
2023/12/29 00:23:19;;;;;;;21.52;8.27;;;19.60;56.90;;;;;;5127109;27;20102;-65
2023/12/29 00:25:45;;;;;;;21.88;13.02;;;19.50;57.60;;;;;;5126629;27;20116;-65
2023/12/29 00:28:12;;;;;;;35.08;22.77;;;19.40;58.10;;;;;;5126462;27;20072;-65
2023/12/29 00:30:41;;;;;;;36.15;24.27;;;19.30;58.90;;;;;;5108066;27;20107;-65
2023/12/29 00:33:08;;;;;;;48.28;30.25;;;19.20;59.50;;;;;;5126327;27;20081;-66
2023/12/29 00:35:38;;;;;;;31.40;12.75;;;19.10;60.90;;;;;;5108192;27;20102;-65
2023/12/29 00:38:06;;;;;;;27.80;15.65;;;18.90;62.40;;;;;;5126763;27;20064;-65
2023/12/29 00:40:33;;;;;;;31.75;12.55;;;18.80;63.50;;;;;;5127652;27;20078;-65
2023/12/29 00:43:03;;;;;;;22.88;11.60;;;18.60;64.30;;;;;;5126901;27;20103;-65
2023/12/29 00:45:35;;;;;;;26.17;9.68;;;18.50;65.00;;;;;;5125332;27;20116;-65
2023/12/29 00:48:03;;;;;;;25.17;9.43;;;18.30;65.60;;;;;;5126801;27;20076;-64
2023/12/29 00:50:29;;;;;;;19.48;9.52;;;18.20;66.30;;;;;;5126072;27;20072;-66
2023/12/29 00:52:56;;;;;;;22.15;9.80;;;18.00;66.70;;;;;;5126238;27;20072;-65
2023/12/29 00:55:22;;;;;;;25.25;9.70;;;17.90;67.60;;;;;;5123611;27;20158;-63
2023/12/29 00:57:49;;;;;;;31.58;10.55;;;17.80;68.20;;;;;;5124279;28;20087;-65
2023/12/29 01:00:15;;;;;;;21.77;9.35;;;17.70;68.40;;;;;;5125883;28;20067;-65
2023/12/29 01:02:42;;;;;;;32.78;19.13;;;17.60;69.10;;;;;;5124897;28;20099;-65
2023/12/29 01:05:08;;;;;;;24.20;9.90;;;17.50;70.00;;;;;;5124423;28;20127;-64
2023/12/29 01:07:35;;;;;;;33.17;9.48;;;17.40;70.80;;;;;;5127309;28;20067;-65
2023/12/29 01:10:01;;;;;;;26.77;10.27;;;17.30;71.80;;;;;;5125746;28;20080;-64
2023/12/29 01:12:28;;;;;;;42.88;10.88;;;17.20;72.10;;;;;;5125980;28;20085;-66
2023/12/29 01:14:54;;;;;;;35.65;10.35;;;17.00;73.10;;;;;;5127168;28;20117;-64
2023/12/29 01:17:22;;;;;;;41.75;11.02;;;16.90;73.50;;;;;;5108796;28;20086;-64
2023/12/29 01:19:48;;;;;;;31.42;11.07;;;16.80;74.10;;;;;;5124277;28;20078;-64
2023/12/29 01:22:15;;;;;;;41.28;11.73;;;16.80;74.10;;;;;;5126184;28;20126;-64
2023/12/29 01:24:41;;;;;;;42.53;13.95;;;16.70;75.20;;;;;;5128091;28;20080;-65
2023/12/29 01:27:08;;;;;;;43.20;14.02;;;16.70;75.10;;;;;;5124691;28;20597;-64
2023/12/29 01:29:34;;;;;;;48.78;16.92;;;16.60;75.90;;;;;;5127666;28;20159;-64
2023/12/29 01:32:03;;;;;;;60.38;21.95;;;16.50;76.20;;;;;;5125243;28;20068;-64
2023/12/29 01:34:33;;;;;;;61.63;29.25;;;16.50;77.20;;;;;;5126868;27;20076;-66
2023/12/29 01:37:03;;;;;;;73.85;30.75;;;16.40;77.10;;;;;;5131769;27;20107;-65
2023/12/29 01:39:30;;;;;;;68.10;30.42;;;16.30;77.60;;;;;;5129662;27;20076;-66
2023/12/29 01:41:57;;;;;;;73.00;29.92;;;16.20;78.50;;;;;;5129580;27;20535;-65
2023/12/29 01:44:24;;;;;;;67.15;25.20;;;16.20;78.80;;;;;;5129845;27;20223;-66
2023/12/29 01:46:54;;;;;;;49.75;22.38;;;16.10;80.00;;;;;;5130696;27;20522;-66
2023/12/29 01:49:21;;;;;;;56.10;22.00;;;16.00;80.60;;;;;;5131317;27;20072;-66
2023/12/29 01:51:55;;;;;;;65.28;20.38;;;15.90;81.80;;;;;;5129466;27;20079;-67
2023/12/29 01:54:22;;;;;;;69.68;24.15;;;15.90;82.70;;;;;;5130517;27;20090;-66
2023/12/29 01:56:56;;;;;;;69.57;24.27;;;15.80;83.30;;;;;;5129817;27;20087;-67
2023/12/29 01:59:25;;;;;;;69.80;22.08;;;15.70;84.50;;;;;;5130228;27;20119;-67
2023/12/29 02:01:54;;;;;;;58.03;22.00;;;15.70;85.30;;;;;;5128222;27;20188;-68
2023/12/29 02:04:22;;;;;;;58.97;22.45;;;15.60;85.60;;;;;;5128218;27;20083;-64
2023/12/29 02:06:48;;;;;;;66.20;22.85;;;15.50;85.90;;;;;;5128195;27;20072;-65
2023/12/29 02:09:17;;;;;;;73.65;23.63;;;15.50;86.80;;;;;;5132057;27;20075;-66
2023/12/29 02:11:44;;;;;;;72.93;23.45;;;15.40;87.50;;;;;;5129949;27;20072;-64
2023/12/29 02:14:11;;;;;;;72.57;24.85;;;15.30;87.70;;;;;;5131378;27;20087;-66
2023/12/29 02:16:59;;;;;;;81.70;28.05;;;15.30;88.70;;;;;;5130348;27;20068;-66
2023/12/29 02:19:46;;;;;;;85.80;30.50;;;15.20;89.30;;;;;;5130332;27;20107;-67
2023/12/29 02:22:13;;;;;;;77.85;29.88;;;15.20;90.00;;;;;;5108975;27;20104;-67
2023/12/29 02:24:40;;;;;;;98.45;30.80;;;15.10;90.50;;;;;;5130448;27;20174;-66
2023/12/29 02:27:22;;;;;;;75.18;30.40;;;15.10;90.80;;;;;;5129624;27;20491;-64
2023/12/29 02:30:36;;;;;;;102.95;30.58;;;15.10;91.10;;;;;;5129269;27;20076;-64
2023/12/29 02:33:08;;;;;;;82.63;31.98;;;15.00;91.40;;;;;;5105196;27;20100;-65
2023/12/29 02:35:39;;;;;;;101.75;33.15;;;14.90;91.70;;;;;;5128599;27;20125;-64
2023/12/29 02:38:06;;;;;;;89.88;33.58;;;14.90;92.00;;;;;;5129577;27;20064;-64
2023/12/29 02:40:33;;;;;;;109.18;34.63;;;14.80;92.40;;;;;;5128133;27;20067;-65
2023/12/29 02:42:59;;;;;;;106.78;36.67;;;14.70;92.70;;;;;;5129879;27;20156;-67
2023/12/29 02:45:27;;;;;;;86.10;35.63;;;14.70;93.00;;;;;;5107568;28;20180;-65
2023/12/29 02:47:54;;;;;;;110.95;38.20;;;14.60;93.20;;;;;;5108851;28;20193;-64
2023/12/29 02:50:20;;;;;;;115.03;43.95;;;14.60;93.30;;;;;;5108658;28;20472;-64
2023/12/29 02:52:47;;;;;;;99.38;44.13;;;14.60;93.70;;;;;;5107486;28;20080;-64
2023/12/29 02:55:13;;;;;;;106.57;40.92;;;14.60;94.20;;;;;;5107723;28;20155;-66
2023/12/29 02:57:40;;;;;;;120.88;41.15;;;14.60;94.60;;;;;;5108413;28;20555;-65
2023/12/29 03:00:07;;;;;;;101.55;38.97;;;14.50;94.40;;;;;;5109055;28;20072;-66
2023/12/29 03:02:34;;;;;;;123.13;40.72;;;14.50;94.80;;;;;;5108510;27;20469;-65
2023/12/29 03:05:01;;;;;;;118.22;39.30;;;14.40;95.10;;;;;;5108359;28;20168;-66
2023/12/29 03:07:27;;;;;;;136.35;40.67;;;14.40;95.40;;;;;;5107992;28;20488;-65
2023/12/29 03:09:54;;;;;;;112.07;39.38;;;14.50;95.20;;;;;;5107467;28;20076;-67
2023/12/29 03:12:20;;;;;;;118.72;40.15;;;14.50;94.70;;;;;;5109192;28;20107;-67
2023/12/29 03:14:47;;;;;;;97.90;42.58;;;14.40;94.70;;;;;;5107919;27;20550;-66
2023/12/29 03:17:13;;;;;;;96.05;42.60;;;14.40;94.80;;;;;;5108770;28;20122;-65
2023/12/29 03:19:40;;;;;;;109.53;47.47;;;14.40;95.00;;;;;;5105678;28;20515;-66
2023/12/29 03:22:06;;;;;;;95.43;43.33;;;14.20;94.80;;;;;;5108465;28;20104;-69
2023/12/29 03:24:33;;;;;;;123.13;47.67;;;14.20;95.30;;;;;;5108685;28;20151;-64
2023/12/29 03:26:59;;;;;;;109.75;48.95;;;14.10;95.50;;;;;;5108694;28;20072;-65
2023/12/29 03:29:26;;;;;;;114.45;51.83;;;14.10;95.80;;;;;;5106561;28;20088;-64
2023/12/29 03:31:52;;;;;;;113.75;52.15;;;14.10;96.00;;;;;;5103396;28;20075;-63
2023/12/29 03:34:19;;;;;;;130.85;57.30;;;14.00;96.10;;;;;;5106873;28;20085;-64
2023/12/29 03:36:46;;;;;;;122.95;53.92;;;13.90;96.10;;;;;;5108613;28;20091;-64
2023/12/29 03:39:12;;;;;;;130.88;56.38;;;13.90;96.60;;;;;;5106944;28;20530;-65
2023/12/29 03:41:39;;;;;;;127.65;55.58;;;13.80;97.00;;;;;;5106216;28;20432;-64
2023/12/29 03:44:06;;;;;;;126.07;55.58;;;13.80;97.40;;;;;;5107404;28;20111;-64
2023/12/29 03:46:32;;;;;;;133.80;54.90;;;13.80;97.50;;;;;;5122571;27;20103;-65
2023/12/29 03:48:59;;;;;;;135.98;54.08;;;13.70;97.50;;;;;;5127450;27;20068;-65
2023/12/29 03:51:25;;;;;;;135.40;53.90;;;13.80;97.60;;;;;;5125560;27;20067;-64
2023/12/29 03:53:52;;;;;;;131.88;51.47;;;13.80;97.50;;;;;;5128083;27;20132;-65
2023/12/29 03:56:19;;;;;;;127.15;51.78;;;13.70;97.70;;;;;;5126001;27;20067;-64
2023/12/29 03:58:46;;;;;;;144.18;50.88;;;13.60;97.70;;;;;;5109161;27;20166;-64
2023/12/29 04:01:17;;;;;;;142.93;51.00;;;13.50;98.00;;;;;;5128694;27;20582;-64
2023/12/29 04:03:44;;;;;;;139.93;51.35;;;13.50;98.30;;;;;;5126556;27;20115;-64
2023/12/29 04:06:10;;;;;;;130.77;53.05;;;13.40;98.70;;;;;;5126163;27;20079;-64
2023/12/29 04:08:38;;;;;;;138.73;54.78;;;13.50;99.20;;;;;;5126325;27;20084;-64
2023/12/29 04:11:05;;;;;;;170.10;54.63;;;13.50;99.50;;;;;;5126112;27;20072;-64
2023/12/29 04:13:32;;;;;;;140.48;50.55;;;13.50;99.60;;;;;;5128384;27;20071;-64
2023/12/29 04:15:59;;;;;;;139.45;53.05;;;13.50;99.50;;;;;;5108518;27;20187;-65
2023/12/29 04:18:25;;;;;;;136.32;52.05;;;13.50;99.80;;;;;;5126869;27;20072;-64
2023/12/29 04:20:52;;;;;;;138.38;52.30;;;13.40;99.90;;;;;;5127242;27;20444;-64
2023/12/29 04:23:18;;;;;;;146.70;55.55;;;13.40;99.90;;;;;;5127930;27;20102;-64
2023/12/29 04:25:45;;;;;;;149.73;58.13;;;13.30;99.90;;;;;;5126239;27;20076;-64
2023/12/29 04:28:12;;;;;;;141.15;56.50;;;13.30;99.90;;;;;;5127110;27;20098;-64
2023/12/29 04:30:39;;;;;;;150.45;59.88;;;13.30;99.90;;;;;;5125252;27;20084;-64
2023/12/29 04:33:05;;;;;;;160.98;56.97;;;13.30;99.90;;;;;;5127872;27;20219;-64
2023/12/29 04:35:32;;;;;;;179.73;60.05;;;13.20;99.90;;;;;;5126257;27;20175;-64
2023/12/29 04:37:58;;;;;;;176.40;57.88;;;13.20;99.90;;;;;;5127962;27;20078;-64
2023/12/29 04:40:25;;;;;;;171.43;54.97;;;13.10;99.90;;;;;;5127799;27;20201;-64
2023/12/29 04:42:52;;;;;;;150.30;53.60;;;13.00;99.90;;;;;;5127950;27;20230;-63
2023/12/29 04:45:18;;;;;;;;;;;13.00;99.90;;;;;;5125370;27;20119;-64
2023/12/29 04:47:44;;;;;;;146.52;59.67;;;13.00;99.90;;;;;;5126341;27;19960;-63
2023/12/29 04:50:10;;;;;;;150.05;57.42;;;13.10;99.90;;;;;;5123986;27;20072;-63
2023/12/29 04:52:37;;;;;;;;;;;13.00;99.90;;;;;;5126539;27;20063;-63
2023/12/29 04:55:03;;;;;;;191.50;57.22;;;12.90;99.90;;;;;;5123771;27;19959;-63
2023/12/29 04:57:30;;;;;;;199.43;62.03;;;12.90;99.90;;;;;;5107858;27;20156;-63
2023/12/29 04:59:56;;;;;;;236.70;67.13;;;12.90;99.90;;;;;;5127110;27;20203;-63
2023/12/29 05:02:23;;;;;;;227.85;68.75;;;13.00;99.90;;;;;;5126396;28;20166;-63
2023/12/29 05:04:49;;;;;;;;;;;13.00;99.90;;;;;;5125883;28;20145;-64
2023/12/29 05:07:15;;;;;;;191.02;68.70;;;13.00;99.90;;;;;;5126694;28;19956;-63
2023/12/29 05:09:41;;;;;;;;;;;12.90;99.90;;;;;;5123408;27;20560;-63
2023/12/29 05:12:08;;;;;;;185.15;69.78;;;12.80;99.90;;;;;;5131733;27;19956;-63
2023/12/29 05:14:34;;;;;;;198.93;75.70;;;12.70;99.90;;;;;;5130259;27;20087;-64
2023/12/29 05:17:01;;;;;;;165.25;73.20;;;12.80;99.90;;;;;;5129818;27;20092;-63
2023/12/29 05:19:27;;;;;;;173.85;71.95;;;12.70;99.90;;;;;;5131044;27;20158;-63
2023/12/29 05:21:53;;;;;;;191.88;69.85;;;12.70;99.90;;;;;;5130306;27;20128;-64
2023/12/29 05:24:20;;;;;;;163.38;68.50;;;12.60;99.90;;;;;;5130813;27;20544;-65
2023/12/29 05:26:46;;;;;;;157.88;65.85;;;12.60;99.90;;;;;;5130031;27;20182;-64
2023/12/29 05:29:13;;;;;;;163.23;65.20;;;12.60;99.90;;;;;;5111450;27;20071;-63
2023/12/29 05:31:39;;;;;;;187.32;68.05;;;12.50;99.90;;;;;;5132196;27;20142;-65
2023/12/29 05:34:07;;;;;;;178.00;66.70;;;12.40;99.90;;;;;;5127970;27;20123;-63
2023/12/29 05:36:36;;;;;;;185.55;70.38;;;12.40;99.90;;;;;;5136673;27;20125;-64
2023/12/29 05:39:03;;;;;;;190.13;81.10;;;12.40;99.90;;;;;;5111187;27;20087;-64
2023/12/29 05:41:30;;;;;;;159.10;75.75;;;12.40;99.90;;;;;;5127617;27;20175;-65
2023/12/29 05:43:57;;;;;;;194.18;74.63;;;12.40;99.90;;;;;;5129174;27;20114;-64
2023/12/29 05:46:24;;;;;;;180.15;73.93;;;12.40;99.90;;;;;;5129154;27;21623;-64
2023/12/29 05:48:52;;;;;;;167.52;72.47;;;12.30;99.90;;;;;;5128835;27;20098;-64
2023/12/29 05:51:18;;;;;;;158.80;67.13;;;12.30;99.90;;;;;;5130187;27;20120;-64
2023/12/29 05:53:45;;;;;;;171.77;69.53;;;12.30;99.90;;;;;;5130188;27;20102;-64
2023/12/29 05:56:15;;;;;;;172.00;69.35;;;12.20;99.90;;;;;;5129923;27;20076;-64
2023/12/29 05:58:42;;;;;;;185.98;70.80;;;12.30;99.90;;;;;;5129968;27;20107;-64
2023/12/29 06:01:09;;;;;;;171.60;73.55;;;12.40;99.90;;;;;;5112471;27;20525;-64
2023/12/29 06:03:35;;;;;;;194.38;80.75;;;12.40;99.90;;;;;;5129248;27;20529;-64
2023/12/29 06:06:02;;;;;;;188.32;78.38;;;12.30;99.90;;;;;;5128946;27;20092;-64
2023/12/29 06:08:29;;;;;;;177.70;79.32;;;12.30;99.90;;;;;;5129027;27;20068;-64
2023/12/29 06:10:55;;;;;;;164.57;75.57;;;12.20;99.90;;;;;;5128632;27;20071;-64
2023/12/29 06:13:23;;;;;;;182.63;78.38;;;12.20;99.90;;;;;;5128985;27;20076;-63
2023/12/29 06:15:49;;;;;;;182.05;85.72;;;12.10;99.90;;;;;;5128732;27;20079;-66
2023/12/29 06:18:16;;;;;;;189.90;84.93;;;12.10;99.90;;;;;;5128516;27;20083;-64
2023/12/29 06:20:42;;;;;;;188.60;80.05;;;12.10;99.90;;;;;;5130063;27;20071;-64
2023/12/29 06:23:08;;;;;;;183.55;74.25;;;12.10;99.90;;;;;;5109430;27;20144;-66
2023/12/29 06:25:35;;;;;;;196.88;81.10;;;12.10;99.90;;;;;;5111580;27;20072;-65
2023/12/29 06:28:03;;;;;;;210.85;81.20;;;12.10;99.90;;;;;;5128470;27;20103;-66
2023/12/29 06:30:30;;;;;;;211.07;81.20;;;12.10;99.90;;;;;;5129434;27;20425;-68
2023/12/29 06:32:56;;;;;;;183.07;77.68;;;12.00;99.90;;;;;;5129872;27;20111;-67
2023/12/29 06:35:23;;;;;;;207.25;80.15;;;12.00;99.90;;;;;;5129250;27;20076;-66
2023/12/29 06:37:49;;;;;;;;;;;12.00;99.90;;;;;;5129919;27;21085;-66
2023/12/29 06:40:17;;;;;;;210.40;87.28;;;11.90;99.90;;;;;;5128261;27;19963;-66
2023/12/29 06:42:43;;;;;;;187.63;83.03;;;11.90;99.90;;;;;;5129057;27;20114;-67
2023/12/29 06:45:10;;;;;;;195.77;80.45;;;11.80;99.90;;;;;;5126143;27;20122;-67
2023/12/29 06:47:36;;;;;;;208.57;82.90;;;11.80;99.90;;;;;;5128593;27;20075;-67
2023/12/29 06:50:04;;;;;;;200.85;79.60;;;11.70;99.90;;;;;;5127415;27;20522;-67
2023/12/29 06:52:33;;;;;;;186.57;78.82;;;11.70;99.90;;;;;;5129560;27;20578;-67
2023/12/29 06:55:01;;;;;;;194.32;78.10;;;11.70;99.90;;;;;;5128589;27;20079;-65
2023/12/29 06:57:28;;;;;;;184.20;68.40;;;11.60;99.90;;;;;;5130124;27;20941;-65
2023/12/29 06:59:54;;;;;;;178.27;68.80;;;11.60;99.90;;;;;;5127662;27;20076;-65
2023/12/29 07:02:21;;;;;;;178.32;67.10;;;11.60;99.90;;;;;;5129573;27;20178;-66
2023/12/29 07:04:47;;;;;;;195.00;75.18;;;11.60;99.90;;;;;;5128401;27;20068;-66
2023/12/29 07:07:14;;;;;;;199.48;72.47;;;11.60;99.90;;;;;;5128127;27;20087;-66
2023/12/29 07:09:40;;;;;;;183.63;66.25;;;11.70;99.90;;;;;;5128571;27;20072;-66
2023/12/29 07:12:07;;;;;;;181.70;70.50;;;11.70;99.90;;;;;;5127402;27;20103;-66
2023/12/29 07:14:37;;;;;;;184.68;66.30;;;11.60;99.90;;;;;;5127181;27;20071;-65
2023/12/29 07:17:04;;;;;;;193.43;70.00;;;11.60;99.90;;;;;;5126307;27;20460;-65
2023/12/29 07:19:36;;;;;;;163.63;66.15;;;11.50;99.90;;;;;;5128033;27;20513;-67
2023/12/29 07:22:05;;;;;;;178.23;69.18;;;11.50;99.90;;;;;;5127865;27;20111;-66
2023/12/29 07:24:35;;;;;;;173.98;66.18;;;11.50;99.90;;;;;;5126513;27;20163;-66
2023/12/29 07:27:02;;;;;;;191.77;67.40;;;11.40;99.90;;;;;;5127302;27;20458;-65
2023/12/29 07:29:28;;;;;;;177.82;66.10;;;11.40;99.90;;;;;;5126786;27;20075;-65
2023/12/29 07:31:55;;;;;;;149.50;61.70;;;11.40;99.90;;;;;;5126281;27;20206;-66
2023/12/29 07:34:22;;;;;;;169.23;62.53;;;11.40;99.90;;;;;;5127778;27;20072;-66
2023/12/29 07:36:48;;;;;;;177.85;63.17;;;11.40;99.90;;;;;;5127034;27;20076;-66
2023/12/29 07:39:15;;;;;;;164.40;58.30;;;11.40;99.90;;;;;;5128399;27;20216;-66
2023/12/29 07:41:42;;;;;;;137.27;55.20;;;11.40;99.90;;;;;;5126937;27;20083;-66
2023/12/29 07:44:12;;;;;;;144.30;57.10;;;11.40;99.90;;;;;;5125352;27;20147;-66
2023/12/29 07:46:40;;;;;;;148.07;55.85;;;11.30;99.90;;;;;;5128455;27;20146;-66
2023/12/29 07:49:06;;;;;;;120.72;51.08;;;11.20;99.90;;;;;;5110368;27;20076;-66
2023/12/29 07:51:33;;;;;;;139.40;52.25;;;11.20;99.90;;;;;;5127548;27;20075;-66
2023/12/29 07:54:00;;;;;;;136.13;54.67;;;11.20;99.90;;;;;;5128012;27;20075;-66
2023/12/29 07:56:26;;;;;;;138.77;49.72;;;11.20;99.90;;;;;;5129177;27;20068;-66
2023/12/29 07:58:52;;;;;;;;;;;11.10;99.90;;;;;;5127262;27;20075;-66
2023/12/29 08:01:19;;;;;;;134.07;51.67;;;11.10;99.90;;;;;;5126255;27;19968;-66
2023/12/29 08:03:45;;;;;;;143.18;51.50;;;11.10;99.90;;;;;;5125725;27;20104;-66
2023/12/29 08:06:12;;;;;;;139.25;51.75;;;11.10;99.90;;;;;;5126895;27;20533;-66
2023/12/29 08:08:39;;;;;;;123.22;50.35;;;11.10;99.90;;;;;;5128760;27;20080;-66
2023/12/29 08:11:05;;;;;;;115.35;51.08;;;11.10;99.90;;;;;;5127184;27;20075;-66
2023/12/29 08:13:32;;;;;;;119.38;48.13;;;11.10;99.90;;;;;;5127924;27;20076;-66
2023/12/29 08:15:59;;;;;;;123.32;50.83;;;11.00;99.90;;;;;;5108153;27;20134;-66
2023/12/29 08:18:25;;;;;;;126.25;48.45;;;11.10;99.90;;;;;;5126985;27;20075;-67
2023/12/29 08:20:52;;;;;;;125.78;48.75;;;11.10;99.90;;;;;;5127177;27;20071;-66
2023/12/29 08:23:18;;;;;;;101.43;44.78;;;11.10;99.90;;;;;;5126304;27;20473;-67
2023/12/29 08:25:46;;;;;;;122.55;48.28;;;11.10;99.90;;;;;;5107965;27;20162;-66
2023/12/29 08:28:12;;;;;;;105.75;45.83;;;11.10;99.90;;;;;;5109299;27;20522;-66
2023/12/29 08:30:40;;;;;;;108.70;44.00;;;11.20;99.90;;;;;;5124914;27;20072;-66
2023/12/29 08:33:06;;;;;;;96.53;39.00;;;11.20;99.90;;;;;;5126983;27;20080;-66
2023/12/29 08:35:33;;;;;;;92.18;37.97;;;11.20;99.90;;;;;;5126275;27;20090;-67
2023/12/29 08:37:59;;;;;;;79.55;34.05;;;11.10;99.90;;;;;;5128004;27;20078;-66
2023/12/29 08:40:26;;;;;;;71.85;34.28;;;11.10;99.90;;;;;;5131219;27;20155;-66
2023/12/29 08:42:52;;;;;;;78.65;33.63;;;11.00;99.90;;;;;;5127473;27;20465;-67
2023/12/29 08:45:19;;;;;;;79.22;33.88;;;11.00;99.90;;;;;;5126447;27;20541;-66
2023/12/29 08:47:45;;;;;;;87.13;34.33;;;11.00;99.90;;;;;;5126092;27;20076;-64
2023/12/29 08:50:12;;;;;;;82.45;34.55;;;11.00;99.90;;;;;;5127088;27;20103;-66
2023/12/29 08:52:38;;;;;;;72.28;32.30;;;11.00;99.90;;;;;;5124183;27;20075;-66
2023/12/29 08:55:05;;;;;;;80.90;32.30;;;11.10;99.90;;;;;;5125263;28;20086;-66
2023/12/29 08:57:32;;;;;;;82.65;32.42;;;11.10;99.90;;;;;;5108951;28;20072;-66
2023/12/29 08:59:58;;;;;;;76.60;32.13;;;11.10;99.90;;;;;;5126268;28;20082;-66
2023/12/29 09:02:25;;;;;;;73.30;29.98;;;11.10;99.90;;;;;;5126657;28;20106;-66
2023/12/29 09:04:51;;;;;;;64.80;30.38;;;11.10;99.90;;;;;;5125648;28;20098;-66
2023/12/29 09:07:18;;;;;;;76.25;30.05;;;11.10;99.90;;;;;;5127260;28;20075;-66
2023/12/29 09:09:44;;;;;;;79.63;30.48;;;10.90;99.90;;;;;;5127858;28;20079;-66
2023/12/29 09:12:11;;;;;;;67.80;27.13;;;10.90;99.90;;;;;;5124532;28;20076;-66
2023/12/29 09:14:37;;;;;;;54.90;26.70;;;10.90;99.90;;;;;;5107650;28;20166;-66
2023/12/29 09:17:05;;;;;;;53.97;25.48;;;10.90;99.90;;;;;;5126247;28;20086;-66
2023/12/29 09:19:31;;;;;;;57.85;25.73;;;10.90;99.90;;;;;;5108340;28;20112;-66
2023/12/29 09:21:58;;;;;;;53.05;24.63;;;10.90;99.90;;;;;;5125092;28;20150;-66
2023/12/29 09:24:24;;;;;;;67.78;27.33;;;10.80;99.90;;;;;;5126977;28;20097;-66
2023/12/29 09:26:52;;;;;;;65.85;26.85;;;10.80;99.90;;;;;;5106836;28;20107;-66
2023/12/29 09:29:18;;;;;;;66.38;29.23;;;10.80;99.90;;;;;;5127113;28;20068;-66
2023/12/29 09:31:45;;;;;;;65.90;28.70;;;10.80;99.90;;;;;;5126753;28;20072;-66
2023/12/29 09:34:11;;;;;;;58.03;28.77;;;10.80;99.90;;;;;;5127824;28;20146;-66
2023/12/29 09:36:38;;;;;;;72.05;29.27;;;10.80;99.90;;;;;;5124378;28;20076;-67
2023/12/29 09:39:04;;;;;;;69.13;29.55;;;10.80;99.90;;;;;;5126967;28;20437;-66
2023/12/29 09:41:33;;;;;;;62.85;28.52;;;10.90;99.90;;;;;;5125238;28;20082;-65
2023/12/29 09:44:04;;;;;;;67.95;28.42;;;10.90;99.90;;;;;;5126492;28;20106;-66
2023/12/29 09:46:32;;;;;;;67.10;29.65;;;10.90;99.90;;;;;;5126337;28;20099;-66
2023/12/29 09:49:04;;;;;;;61.38;27.33;;;10.90;99.90;;;;;;5125591;28;20117;-64
2023/12/29 09:51:31;;;;;;;68.32;27.60;;;10.90;99.90;;;;;;5123361;28;20086;-65
2023/12/29 09:53:59;;;;;;;56.15;27.08;;;10.90;99.90;;;;;;5127466;28;20071;-65
2023/12/29 09:56:25;;;;;;;73.95;28.63;;;10.90;99.90;;;;;;5106788;27;20410;-66
2023/12/29 09:58:53;;;;;;;65.18;28.15;;;10.80;99.90;;;;;;5129597;27;20068;-65
2023/12/29 10:01:22;;;;;;;65.63;27.15;;;10.80;99.90;;;;;;5129534;27;20587;-65
2023/12/29 10:03:49;;;;;;;65.32;27.52;;;10.70;99.90;;;;;;5130239;27;20552;-65
2023/12/29 10:06:21;;;;;;;65.32;28.45;;;10.70;99.90;;;;;;5110162;27;20080;-65
2023/12/29 10:08:49;;;;;;;51.17;26.67;;;10.90;99.90;;;;;;5127847;27;20072;-66
2023/12/29 10:11:18;;;;;;;63.33;26.63;;;10.90;99.90;;;;;;5128305;27;20068;-66
2023/12/29 10:13:49;;;;;;;61.00;25.83;;;10.80;99.90;;;;;;5130636;27;20071;-65
2023/12/29 10:16:41;;;;;;;70.20;27.58;;;10.80;99.90;;;;;;5129483;27;20076;-66
2023/12/29 10:19:40;;;;;;;55.33;26.83;;;10.70;99.90;;;;;;5129963;27;20116;-64
2023/12/29 10:22:25;;;;;;;64.53;28.10;;;10.70;99.90;;;;;;5124849;27;20098;-65
2023/12/29 10:24:52;;;;;;;55.53;26.52;;;10.70;99.90;;;;;;5128564;27;20071;-65
2023/12/29 10:27:19;;;;;;;62.03;26.33;;;10.70;99.90;;;;;;5128207;27;20129;-65
2023/12/29 10:29:45;;;;;;;58.60;25.38;;;10.80;99.90;;;;;;5110947;27;20076;-65
2023/12/29 10:32:12;;;;;;;55.58;26.08;;;10.80;99.90;;;;;;5129338;27;20597;-65
2023/12/29 10:34:38;;;;;;;;;;;10.80;99.90;;;;;;5128623;27;20183;-65
2023/12/29 10:37:09;;;;;;;52.78;23.90;;;10.80;99.90;;;;;;5129390;27;19959;-66
2023/12/29 10:39:38;;;;;;;63.67;26.40;;;10.80;99.90;;;;;;5129309;27;20079;-65
2023/12/29 10:42:07;;;;;;;52.22;25.33;;;10.70;99.90;;;;;;5127693;27;20093;-65
2023/12/29 10:44:38;;;;;;;51.28;24.55;;;10.60;99.90;;;;;;5129134;27;20072;-65
2023/12/29 10:47:11;;;;;;;79.88;24.35;;;10.60;99.90;;;;;;5130230;27;20116;-65
2023/12/29 10:49:38;;;;;;;59.88;25.52;;;10.60;99.90;;;;;;5128339;27;20080;-65
2023/12/29 10:52:17;;;;;;;50.70;22.27;;;10.70;99.90;;;;;;5129408;27;20541;-65
2023/12/29 10:54:44;;;;;;;57.47;23.17;;;10.60;99.90;;;;;;5126651;27;20120;-65
2023/12/29 10:57:14;;;;;;;53.50;23.58;;;10.60;99.90;;;;;;5130097;27;20174;-65
2023/12/29 10:59:40;;;;;;;49.63;20.02;;;10.60;99.90;;;;;;5127306;27;20067;-65
2023/12/29 11:02:14;;;;;;;45.63;20.70;;;10.60;99.90;;;;;;5129895;27;20098;-65
2023/12/29 11:04:41;;;;;;;43.42;19.10;;;10.60;99.90;;;;;;5127689;27;20158;-65
2023/12/29 11:07:11;;;;;;;44.60;20.17;;;10.60;99.90;;;;;;5127754;27;20071;-64
2023/12/29 11:09:38;;;;;;;45.40;19.17;;;10.50;99.90;;;;;;5128333;27;21323;-65
2023/12/29 11:12:05;;;;;;;45.40;19.15;;;10.40;99.90;;;;;;5127786;27;20147;-65
2023/12/29 11:14:33;;;;;;;35.38;17.20;;;10.40;99.90;;;;;;5126497;27;20083;-65
2023/12/29 11:17:00;;;;;;;42.50;17.90;;;10.30;99.90;;;;;;5130707;27;20112;-66
2023/12/29 11:19:28;;;;;;;43.33;17.65;;;10.40;99.90;;;;;;5126148;27;20100;-65
2023/12/29 11:21:57;;;;;;;41.33;17.90;;;10.40;99.90;;;;;;5127337;27;20506;-66
2023/12/29 11:24:24;;;;;;;48.40;19.08;;;10.40;99.90;;;;;;5127625;27;20108;-65
2023/12/29 11:26:52;;;;;;;33.38;16.88;;;10.40;99.90;;;;;;5108983;27;20074;-65
2023/12/29 11:29:19;;;;;;;43.97;17.58;;;10.40;99.90;;;;;;5126387;27;20070;-65
2023/12/29 11:31:50;;;;;;;45.75;17.70;;;10.30;99.90;;;;;;5128289;27;20543;-64
2023/12/29 11:34:25;;;;;;;45.90;18.77;;;10.40;99.90;;;;;;5129783;27;20479;-65
2023/12/29 11:36:58;;;;;;;44.50;18.50;;;10.30;99.90;;;;;;5128380;27;20521;-65
2023/12/29 11:39:45;;;;;;;44.05;18.40;;;10.30;99.90;;;;;;5091375;27;20079;-66
2023/12/29 11:42:12;;;;;;;;;;;10.30;99.90;;;;;;5125891;27;20111;-65
2023/12/29 11:44:39;;;;;;;47.33;19.27;;;10.30;99.90;;;;;;5124677;27;19956;-64
2023/12/29 11:47:25;;;;;;;40.67;20.08;;;10.30;99.90;;;;;;5128332;27;20107;-65
2023/12/29 11:50:02;;;;;;;44.30;19.98;;;10.30;99.90;;;;;;5124037;27;20526;-65
2023/12/29 11:52:42;;;;;;;47.45;20.58;;;10.50;99.90;;;;;;5127347;27;20178;-64
2023/12/29 11:55:20;;;;;;;55.97;21.80;;;10.50;99.90;;;;;;5126784;27;20080;-64
2023/12/29 11:57:46;;;;;;;58.47;24.05;;;10.50;99.90;;;;;;5129259;27;20070;-65
2023/12/29 12:00:13;;;;;;;58.60;25.00;;;10.60;99.90;;;;;;5128853;27;20106;-65
2023/12/29 12:02:41;;;;;;;70.72;24.75;;;10.60;99.90;;;;;;5127203;27;20095;-65
2023/12/29 12:05:09;;;;;;;58.42;25.77;;;10.60;99.90;;;;;;5127576;27;20076;-65
2023/12/29 12:07:36;;;;;;;62.75;25.58;;;10.60;99.90;;;;;;5106501;27;20118;-65
2023/12/29 12:10:22;;;;;;;52.40;26.20;;;10.60;99.90;;;;;;5126105;27;20537;-65
2023/12/29 12:12:51;;;;;;;61.05;25.02;;;10.60;99.90;;;;;;5126581;27;20074;-65
2023/12/29 12:15:30;;;;;;;56.17;24.52;;;10.50;99.90;;;;;;5125407;27;20067;-64
2023/12/29 12:18:00;;;;;;;47.38;23.95;;;10.50;99.90;;;;;;5125928;27;20429;-65
2023/12/29 12:20:30;;;;;;;57.25;25.20;;;10.50;99.90;;;;;;5122722;27;20162;-65
2023/12/29 12:23:12;;;;;;;56.70;25.48;;;10.40;99.90;;;;;;5126730;27;20604;-64
2023/12/29 12:25:40;;;;;;;60.67;26.00;;;10.40;99.90;;;;;;5107537;27;20151;-65
2023/12/29 12:28:07;;;;;;;55.80;28.08;;;10.30;99.90;;;;;;5129334;27;20075;-65
2023/12/29 12:30:35;;;;;;;63.95;28.77;;;10.30;99.90;;;;;;5125870;27;20072;-65